Time;durP1;ratioP1;P1;durP2;ratioP2;P2;SDS_P1;SDS_P2;PMS_P1;PMS_P2;Temp;Humidity;BMP_temperature;BMP_pressure;BME280_temperature;BME280_humidity;BME280_pressure;Samples;Min_cycle;Max_cycle;Signal;HPM_P1;HPM_P2
2023/03/02 00:00:10;;;;;;;;;;;;;;;2.20;nan;100860.41;5014555;28;19980;-83
2023/03/02 00:02:39;;;;;;;;;;;;;;;2.18;nan;100852.66;5016087;28;19917;-83
2023/03/02 00:05:05;;;;;;;;;;;;;;;2.17;nan;100857.94;4998779;28;19914;-84
2023/03/02 00:07:32;;;;;;;;;;;;;;;2.18;nan;100854.41;5015668;28;19920;-84
2023/03/02 00:09:57;;;;;;;;;;;;;;;2.22;nan;100848.09;5016190;28;19913;-83
2023/03/02 00:12:22;;;;;;;;;;;;;;;2.26;nan;100846.97;5014855;28;20298;-83
2023/03/02 00:14:48;;;;;;;;;;;;;;;2.29;nan;100852.88;5015409;28;19928;-84
2023/03/02 00:17:13;;;;;;;;;;;;;;;2.28;nan;100852.94;4996854;28;19920;-83
2023/03/02 00:19:38;;;;;;;;;;;;;;;2.23;nan;100850.59;4995190;28;20345;-83
2023/03/02 00:22:03;;;;;;;;;;;;;;;2.27;nan;100861.72;4995058;28;19913;-83
2023/03/02 00:24:29;;;;;;;;;;;;;;;2.34;nan;100847.38;5027283;28;19914;-83
2023/03/02 00:26:54;;;;;;;;;;;;;;;2.30;nan;100857.13;4994784;28;19918;-83
2023/03/02 00:29:19;;;;;;;;;;;;;;;2.27;nan;100851.28;4995266;28;19913;-83
2023/03/02 00:31:44;;;;;;;;;;;;;;;2.29;nan;100854.63;4996003;28;19913;-82
2023/03/02 00:34:10;;;;;;;;;;;;;;;2.29;nan;100846.81;4994506;28;20410;-83
2023/03/02 00:36:35;;;;;;;;;;;;;;;2.34;nan;100848.22;5012275;28;19913;-83
2023/03/02 00:39:00;;;;;;;;;;;;;;;2.33;nan;100837.84;4995012;28;19921;-83
2023/03/02 00:41:25;;;;;;;;;;;;;;;2.29;nan;100831.16;4995109;28;19921;-83
2023/03/02 00:43:51;;;;;;;;;;;;;;;2.26;nan;100836.53;4996553;28;19913;-83
2023/03/02 00:46:17;;;;;;;;;;;;;;;2.32;nan;100839.63;4994202;28;19984;-83
2023/03/02 00:48:43;;;;;;;;;;;;;;;2.34;nan;100829.09;5011733;28;20342;-83
2023/03/02 00:51:08;;;;;;;;;;;;;;;2.31;nan;100826.66;4994235;28;19914;-83
2023/03/02 00:53:34;;;;;;;;;;;;;;;2.37;nan;100825.47;4994028;28;19924;-83
2023/03/02 00:56:00;;;;;;;;;;;;;;;2.39;nan;100824.44;4995975;28;19920;-83
2023/03/02 00:58:26;;;;;;;;;;;;;;;2.38;nan;100832.34;5013153;28;19917;-83
2023/03/02 01:00:51;;;;;;;;;;;;;;;2.35;nan;100828.16;5013834;28;19917;-83
2023/03/02 01:03:16;;;;;;;;;;;;;;;2.31;nan;100824.91;5013455;28;19920;-84
2023/03/02 01:05:41;;;;;;;;;;;;;;;2.32;nan;100817.91;5014153;28;19917;-83
2023/03/02 01:08:07;;;;;;;;;;;;;;;2.26;nan;100813.88;5012842;28;19971;-84
2023/03/02 01:10:32;;;;;;;;;;;;;;;2.23;nan;100816.69;5014282;28;20044;-84
2023/03/02 01:12:58;;;;;;;;;;;;;;;2.25;nan;100816.59;4996339;28;20381;-84
2023/03/02 01:15:23;;;;;;;;;;;;;;;2.25;nan;100814.84;4995622;28;19917;-83
2023/03/02 01:17:48;;;;;;;;;;;;;;;2.26;nan;100815.66;4995986;28;19923;-83
2023/03/02 01:20:16;;;;;;;;;;;;;;;2.28;nan;100819.03;5013178;28;19985;-84
2023/03/02 01:22:42;;;;;;;;;;;;;;;2.29;nan;100818.94;4996017;28;19988;-83
2023/03/02 01:25:08;;;;;;;;;;;;;;;2.26;nan;100813.88;4995319;28;19917;-83
2023/03/02 01:27:33;;;;;;;;;;;;;;;2.21;nan;100802.88;4992660;28;19924;-83
2023/03/02 01:29:58;;;;;;;;;;;;;;;2.25;nan;100804.38;5011679;28;19925;-83
2023/03/02 01:32:23;;;;;;;;;;;;;;;2.23;nan;100793.19;5010224;28;19928;-83
2023/03/02 01:34:48;;;;;;;;;;;;;;;2.22;nan;100794.16;5012596;28;19918;-83
2023/03/02 01:37:14;;;;;;;;;;;;;;;2.21;nan;100795.06;5013111;28;19984;-83
2023/03/02 01:39:39;;;;;;;;;;;;;;;2.15;nan;100789.41;4996291;28;19929;-83
2023/03/02 01:45:26;;;;;;;;;;;;;;;2.11;nan;100786.94;5013279;28;20023;-83
2023/03/02 01:47:51;;;;;;;;;;;;;;;2.13;nan;100787.69;4994838;28;19924;-83
2023/03/02 01:50:22;;;;;;;;;;;;;;;2.12;nan;100778.22;5003932;28;19917;-83
2023/03/02 01:52:48;;;;;;;;;;;;;;;2.19;nan;100776.03;5009354;28;19917;-82
2023/03/02 01:55:15;;;;;;;;;;;;;;;2.20;nan;100782.97;4992415;28;19933;-83
2023/03/02 01:57:44;;;;;;;;;;;;;;;2.21;nan;100783.78;5010341;28;19967;-82
2023/03/02 02:00:14;;;;;;;;;;;;;;;2.16;nan;100778.84;4991577;28;20394;-83
2023/03/02 02:02:40;;;;;;;;;;;;;;;2.16;nan;100778.84;5010217;28;20263;-83
2023/03/02 02:05:07;;;;;;;;;;;;;;;2.15;nan;100768.53;5010796;28;19917;-83
2023/03/02 02:07:32;;;;;;;;;;;;;;;2.12;nan;100773.00;4992227;28;19922;-83
2023/03/02 02:09:57;;;;;;;;;;;;;;;2.11;nan;100765.25;5010842;28;20510;-84
2023/03/02 02:12:22;;;;;;;;;;;;;;;2.15;nan;100769.34;5016614;28;19945;-84
2023/03/02 02:14:48;;;;;;;;;;;;;;;2.17;nan;100761.41;5018378;28;20318;-84
2023/03/02 02:17:15;;;;;;;;;;;;;;;2.09;nan;100767.09;5002020;28;19973;-85
2023/03/02 02:19:54;;;;;;;;;;;;;;;2.14;nan;100765.06;4999819;28;19922;-85
2023/03/02 02:22:35;;;;;;;;;;;;;;;2.12;nan;100762.56;5000450;28;19913;-84
2023/03/02 02:25:02;;;;;;;;;;;;;;;2.04;nan;100764.75;5000541;28;19928;-85
2023/03/02 02:27:32;;;;;;;;;;;;;;;2.08;nan;100757.59;5002332;28;19918;-84
2023/03/02 02:29:58;;;;;;;;;;;;;;;2.04;nan;100756.09;5004191;28;19924;-83
2023/03/02 02:32:29;;;;;;;;;;;;;;;2.02;nan;100757.97;5003000;28;20016;-84
2023/03/02 02:34:57;;;;;;;;;;;;;;;2.00;nan;100755.47;5023931;28;19913;-84
2023/03/02 02:37:29;;;;;;;;;;;;;;;1.95;nan;100759.25;5007438;28;19927;-85
2023/03/02 02:39:56;;;;;;;;;;;;;;;1.87;nan;100750.13;5005866;28;19913;-84
2023/03/02 02:42:27;;;;;;;;;;;;;;;1.81;nan;100752.25;5004893;28;20000;-82
2023/03/02 02:44:55;;;;;;;;;;;;;;;1.66;nan;100756.59;5005147;28;19925;-84
2023/03/02 02:47:21;;;;;;;;;;;;;;;1.50;nan;100761.84;5022230;28;19957;-84
2023/03/02 02:49:47;;;;;;;;;;;;;;;1.43;nan;100761.38;5006759;28;19917;-85
2023/03/02 02:52:14;;;;;;;;;;;;;;;1.30;nan;100756.94;5007984;28;19921;-82
2023/03/02 02:54:42;;;;;;;;;;;;;;;1.20;nan;100754.00;5027717;28;19918;-85
2023/03/02 02:57:09;;;;;;;;;;;;;;;1.12;nan;100758.78;5009545;28;19917;-85
2023/03/02 02:59:38;;;;;;;;;;;;;;;1.04;nan;100754.84;5025132;28;19931;-85
2023/03/02 03:02:03;;;;;;;;;;;;;;;0.92;nan;100763.34;5020941;28;20334;-83
2023/03/02 03:04:29;;;;;;;;;;;;;;;0.91;nan;100756.47;5001494;28;19917;-83
2023/03/02 03:06:59;;;;;;;;;;;;;;;0.85;nan;100754.19;5021810;28;20106;-83
2023/03/02 03:09:25;;;;;;;;;;;;;;;0.75;nan;100751.25;5003290;28;19917;-85
2023/03/02 03:12:01;;;;;;;;;;;;;;;0.69;nan;100745.53;5003415;28;19927;-85
2023/03/02 03:14:29;;;;;;;;;;;;;;;0.63;nan;100749.31;5002304;28;19931;-83
2023/03/02 03:16:54;;;;;;;;;;;;;;;0.59;nan;100748.63;5001201;28;19917;-84
2023/03/02 03:19:20;;;;;;;;;;;;;;;0.65;nan;100757.88;5020303;28;20401;-84
2023/03/02 03:21:47;;;;;;;;;;;;;;;0.65;nan;100751.84;5017815;28;19977;-84
2023/03/02 03:24:12;;;;;;;;;;;;;;;0.54;nan;100750.63;5034388;28;20329;-82
2023/03/02 03:26:37;;;;;;;;;;;;;;;0.39;nan;100747.09;5020070;28;19917;-83
2023/03/02 03:29:02;;;;;;;;;;;;;;;0.31;nan;100751.00;5001074;28;19918;-84
2023/03/02 03:31:28;;;;;;;;;;;;;;;0.19;nan;100748.16;5002303;28;19960;-84
2023/03/02 03:33:54;;;;;;;;;;;;;;;0.08;nan;100752.22;5017715;28;19921;-84
2023/03/02 03:36:19;;;;;;;;;;;;;;;-0.04;nan;100753.69;5000508;28;19924;-85
2023/03/02 03:38:45;;;;;;;;;;;;;;;-0.17;nan;100742.22;5020510;28;19921;-84
2023/03/02 03:41:10;;;;;;;;;;;;;;;-0.23;nan;100748.59;5001020;28;19921;-85
2023/03/02 03:43:35;;;;;;;;;;;;;;;-0.31;nan;100751.56;5001986;28;19927;-84
2023/03/02 03:46:00;;;;;;;;;;;;;;;-0.40;nan;100752.03;5002895;28;19930;-85
2023/03/02 03:48:25;;;;;;;;;;;;;;;-0.52;nan;100756.06;5001865;28;20825;-82
2023/03/02 03:50:51;;;;;;;;;;;;;;;-0.59;nan;100751.25;5015785;28;19917;-83
2023/03/02 03:53:16;;;;;;;;;;;;;;;-0.65;nan;100760.16;5020249;28;20008;-85
2023/03/02 03:55:41;;;;;;;;;;;;;;;-0.75;nan;100753.75;5019158;28;19917;-84
2023/03/02 03:58:06;;;;;;;;;;;;;;;-0.82;nan;100757.56;5016784;28;19921;-86
2023/03/02 04:00:31;;;;;;;;;;;;;;;-0.90;nan;100752.72;4997724;28;20350;-83
2023/03/02 04:02:57;;;;;;;;;;;;;;;-0.90;nan;100756.16;5000764;28;19917;-83
2023/03/02 04:05:22;;;;;;;;;;;;;;;-0.93;nan;100752.84;5001838;28;19917;-84
2023/03/02 04:07:47;;;;;;;;;;;;;;;-1.03;nan;100752.44;5001272;28;19917;-83
2023/03/02 04:10:12;;;;;;;;;;;;;;;-1.10;nan;100756.25;5019655;28;19917;-84
2023/03/02 04:12:39;;;;;;;;;;;;;;;-1.16;nan;100752.19;5019131;28;20358;-84
2023/03/02 04:15:06;;;;;;;;;;;;;;;-1.22;nan;100764.59;5017869;28;19925;-84
2023/03/02 04:17:31;;;;;;;;;;;;;;;-1.26;nan;100761.31;5001527;28;19949;-84
2023/03/02 04:19:56;;;;;;;;;;;;;;;-1.21;nan;100758.53;5018443;28;20036;-85
2023/03/02 04:22:21;;;;;;;;;;;;;;;-1.24;nan;100767.28;5000691;28;19917;-81
2023/03/02 04:24:47;;;;;;;;;;;;;;;-1.24;nan;100762.09;5017763;28;20000;-83
2023/03/02 04:27:13;;;;;;;;;;;;;;;-1.19;nan;100769.63;5019240;28;19928;-84
2023/03/02 04:29:38;;;;;;;;;;;;;;;-1.20;nan;100770.56;5017781;28;19992;-81
2023/03/02 04:32:03;;;;;;;;;;;;;;;-1.26;nan;100763.06;4995582;28;19996;-85
2023/03/02 04:34:28;;;;;;;;;;;;;;;-1.29;nan;100774.41;4999515;28;20383;-83
2023/03/02 04:36:54;;;;;;;;;;;;;;;-1.34;nan;100771.19;5020936;28;19913;-85
2023/03/02 04:39:19;;;;;;;;;;;;;;;-1.37;nan;100774.78;5003587;28;19972;-84
2023/03/02 04:41:44;;;;;;;;;;;;;;;-1.39;nan;100765.38;5017953;28;19917;-85
2023/03/02 04:44:10;;;;;;;;;;;;;;;-1.42;nan;100770.72;4997624;28;21189;-85
2023/03/02 04:46:35;;;;;;;;;;;;;;;-1.43;nan;100780.25;5018353;28;19944;-83
2023/03/02 04:49:00;;;;;;;;;;;;;;;-1.45;nan;100776.88;5012556;28;19940;-85
2023/03/02 04:51:28;;;;;;;;;;;;;;;-1.46;nan;100772.59;5003879;28;19932;-82
2023/03/02 04:53:55;;;;;;;;;;;;;;;-1.51;nan;100765.00;5002423;28;19981;-83
2023/03/02 04:56:21;;;;;;;;;;;;;;;-1.55;nan;100775.59;5019713;28;19917;-85
2023/03/02 04:58:46;;;;;;;;;;;;;;;-1.58;nan;100767.94;5004312;28;20438;-84
2023/03/02 05:01:12;;;;;;;;;;;;;;;-1.58;nan;100768.78;4999450;28;19997;-84
2023/03/02 05:03:37;;;;;;;;;;;;;;;-1.48;nan;100763.19;5018697;28;19923;-86
2023/03/02 05:06:03;;;;;;;;;;;;;;;-1.39;nan;100761.03;5001328;28;20008;-85
2023/03/02 05:08:28;;;;;;;;;;;;;;;-1.15;nan;100750.44;4998984;28;19924;-83
2023/03/02 05:10:54;;;;;;;;;;;;;;;-0.81;nan;100754.03;5014892;28;19948;-83
2023/03/02 05:13:19;;;;;;;;;;;;;;;-0.61;nan;100748.72;5013301;28;20113;-83
2023/03/02 05:15:44;;;;;;;;;;;;;;;-0.41;nan;100750.31;5011802;28;19941;-83
2023/03/02 05:18:10;;;;;;;;;;;;;;;-0.32;nan;100747.28;4993554;28;20393;-83
2023/03/02 05:20:35;;;;;;;;;;;;;;;-0.23;nan;100739.03;5011627;28;20544;-83
2023/03/02 05:23:02;;;;;;;;;;;;;;;-0.18;nan;100745.75;4993291;28;19960;-83
2023/03/02 05:25:28;;;;;;;;;;;;;;;-0.13;nan;100741.16;5011646;28;20020;-83
2023/03/02 05:27:54;;;;;;;;;;;;;;;-0.05;nan;100741.59;4993253;28;19964;-83
2023/03/02 05:30:19;;;;;;;;;;;;;;;0.01;nan;100749.09;4993475;28;19917;-83
2023/03/02 05:32:45;;;;;;;;;;;;;;;0.05;nan;100737.63;5009796;28;19925;-83
2023/03/02 05:35:10;;;;;;;;;;;;;;;0.08;nan;100734.84;5009681;28;19968;-83
2023/03/02 05:37:38;;;;;;;;;;;;;;;0.09;nan;100736.53;5007033;28;19929;-83
2023/03/02 05:40:05;;;;;;;;;;;;;;;0.12;nan;100739.00;5008592;28;19917;-83
2023/03/02 05:42:30;;;;;;;;;;;;;;;0.12;nan;100738.13;5008806;28;19917;-83
2023/03/02 05:44:56;;;;;;;;;;;;;;;0.12;nan;100745.94;5009858;28;19928;-83
2023/03/02 05:47:21;;;;;;;;;;;;;;;0.10;nan;100748.63;5008527;28;19996;-83
2023/03/02 05:49:46;;;;;;;;;;;;;;;0.06;nan;100748.88;4997165;28;20160;-83
2023/03/02 05:52:11;;;;;;;;;;;;;;;0.09;nan;100748.69;4996348;28;19929;-83
2023/03/02 05:54:36;;;;;;;;;;;;;;;0.10;nan;100751.22;5011499;28;19921;-83
2023/03/02 05:57:02;;;;;;;;;;;;;;;0.03;nan;100746.44;4991542;28;19926;-83
2023/03/02 05:59:27;;;;;;;;;;;;;;;-0.03;nan;100753.59;5010867;28;20333;-83
2023/03/02 06:01:57;;;;;;;;;;;;;;;-0.06;nan;100745.97;5011589;28;19918;-83
2023/03/02 06:04:22;;;;;;;;;;;;;;;-0.15;nan;100743.00;4999410;28;19956;-83
2023/03/02 06:06:47;;;;;;;;;;;;;;;-0.19;nan;100755.31;5011038;28;20464;-83
2023/03/02 06:09:12;;;;;;;;;;;;;;;-0.29;nan;100754.91;5010730;28;19933;-83
2023/03/02 06:11:38;;;;;;;;;;;;;;;-0.39;nan;100753.69;5012350;28;19928;-83
2023/03/02 06:14:03;;;;;;;;;;;;;;;-0.44;nan;100753.91;5013907;28;19924;-83
2023/03/02 06:16:28;;;;;;;;;;;;;;;-0.50;nan;100755.97;4993601;28;19917;-83
2023/03/02 06:18:53;;;;;;;;;;;;;;;-0.60;nan;100757.34;5011776;28;19979;-83
2023/03/02 06:21:18;;;;;;;;;;;;;;;-0.72;nan;100766.56;5010330;28;19917;-83
2023/03/02 06:23:43;;;;;;;;;;;;;;;-0.74;nan;100773.59;5012061;28;19924;-83
2023/03/02 06:26:10;;;;;;;;;;;;;;;-0.79;nan;100772.97;5009309;28;19976;-83
2023/03/02 06:28:35;;;;;;;;;;;;;;;-0.81;nan;100775.66;5011746;28;19917;-83
2023/03/02 06:31:00;;;;;;;;;;;;;;;-0.76;nan;100772.81;5012923;28;19924;-83
2023/03/02 06:33:26;;;;;;;;;;;;;;;-0.76;nan;100776.28;4993381;28;19999;-83
2023/03/02 06:35:51;;;;;;;;;;;;;;;-0.72;nan;100779.56;5010545;28;19918;-83
2023/03/02 06:38:16;;;;;;;;;;;;;;;-0.72;nan;100774.38;4989060;28;21181;-84
2023/03/02 06:40:41;;;;;;;;;;;;;;;-0.68;nan;100776.75;5009892;28;19923;-83
2023/03/02 06:43:07;;;;;;;;;;;;;;;-0.60;nan;100786.75;5008714;28;19921;-84
2023/03/02 06:45:36;;;;;;;;;;;;;;;-0.58;nan;100789.28;5010321;28;19925;-83
2023/03/02 06:48:02;;;;;;;;;;;;;;;-0.51;nan;100794.09;4991057;28;19953;-83
2023/03/02 06:50:27;;;;;;;;;;;;;;;-0.47;nan;100784.41;5007683;28;19976;-83
2023/03/02 06:52:52;;;;;;;;;;;;;;;-0.35;nan;100786.41;4988296;28;19925;-83
2023/03/02 06:55:17;;;;;;;;;;;;;;;-0.31;nan;100787.94;5008337;28;20347;-83
2023/03/02 06:57:43;;;;;;;;;;;;;;;-0.22;nan;100797.88;5007410;28;19917;-82
2023/03/02 07:00:12;;;;;;;;;;;;;;;-0.09;nan;100802.47;4991844;28;19923;-81
2023/03/02 07:02:38;;;;;;;;;;;;;;;0.02;nan;100791.53;4990971;28;20005;-82
2023/03/02 07:05:04;;;;;;;;;;;;;;;0.13;nan;100800.47;4994786;28;19956;-82
2023/03/02 07:07:29;;;;;;;;;;;;;;;0.31;nan;100800.44;5012152;28;20025;-82
2023/03/02 07:09:54;;;;;;;;;;;;;;;0.47;nan;100805.69;5012536;28;20451;-82
2023/03/02 07:12:19;;;;;;;;;;;;;;;0.70;nan;100796.69;5011616;28;20397;-83
2023/03/02 07:14:44;;;;;;;;;;;;;;;1.14;nan;100806.44;5015095;28;19913;-81
2023/03/02 07:17:10;;;;;;;;;;;;;;;1.54;nan;100805.03;4998780;28;20394;-82
2023/03/02 07:19:37;;;;;;;;;;;;;;;1.98;nan;100803.41;5016074;28;20012;-82
2023/03/02 07:22:02;;;;;;;;;;;;;;;2.47;nan;100803.09;4999747;28;19917;-82
2023/03/02 07:24:27;;;;;;;;;;;;;;;2.92;nan;100806.44;4994561;28;19925;-82
2023/03/02 07:26:53;;;;;;;;;;;;;;;3.35;nan;100801.94;4995284;28;19917;-82
2023/03/02 07:29:18;;;;;;;;;;;;;;;3.68;nan;100795.47;5013015;28;19913;-82
2023/03/02 07:31:43;;;;;;;;;;;;;;;4.15;nan;100803.72;4992462;28;19918;-82
2023/03/02 07:34:08;;;;;;;;;;;;;;;4.43;nan;100794.78;5013600;28;19913;-82
2023/03/02 07:36:33;;;;;;;;;;;;;;;4.38;nan;100791.66;5018004;28;20367;-83
2023/03/02 07:39:00;;;;;;;;;;;;;;;4.72;nan;100798.03;5017100;28;20000;-83
2023/03/02 07:41:25;;;;;;;;;;;;;;;4.97;nan;100796.28;5017497;28;20398;-83
2023/03/02 07:43:51;;;;;;;;;;;;;;;4.87;nan;100796.94;5018509;28;20113;-83
2023/03/02 07:46:16;;;;;;;;;;;;;;;4.71;nan;100806.81;4996279;28;19914;-82
2023/03/02 07:48:41;;;;;;;;;;;;;;;4.45;nan;100801.59;5000356;28;19962;-83
2023/03/02 07:51:06;;;;;;;;;;;;;;;4.28;nan;100799.31;4998813;28;19919;-82
2023/03/02 07:53:32;;;;;;;;;;;;;;;4.14;nan;100796.78;5016840;28;19917;-83
2023/03/02 07:55:57;;;;;;;;;;;;;;;4.09;nan;100804.13;4998285;28;19968;-83
2023/03/02 07:58:23;;;;;;;;;;;;;;;4.02;nan;100801.06;5015277;28;19984;-83
2023/03/02 08:00:48;;;;;;;;;;;;;;;3.94;nan;100798.97;4996960;28;19917;-83
2023/03/02 08:03:13;;;;;;;;;;;;;;;3.98;nan;100794.34;4997128;28;20016;-83
2023/03/02 08:05:39;;;;;;;;;;;;;;;3.96;nan;100799.72;5015626;28;19914;-83
2023/03/02 08:08:04;;;;;;;;;;;;;;;4.07;nan;100788.50;4996880;28;20005;-83
2023/03/02 08:10:29;;;;;;;;;;;;;;;4.18;nan;100791.25;4994613;28;20397;-82
2023/03/02 08:12:54;;;;;;;;;;;;;;;4.29;nan;100784.44;4996513;28;20210;-83
2023/03/02 08:15:19;;;;;;;;;;;;;;;4.38;nan;100789.03;5014507;28;19921;-83
2023/03/02 08:17:45;;;;;;;;;;;;;;;4.38;nan;100789.03;4996846;28;20467;-83
2023/03/02 08:20:10;;;;;;;;;;;;;;;4.40;nan;100795.84;4996909;28;20557;-83
2023/03/02 08:22:35;;;;;;;;;;;;;;;4.56;nan;100793.00;5014735;28;19997;-83
2023/03/02 08:25:00;;;;;;;;;;;;;;;4.48;nan;100792.69;5012452;28;19917;-83
2023/03/02 08:27:26;;;;;;;;;;;;;;;4.50;nan;100796.03;4996028;28;19924;-83
2023/03/02 08:29:53;;;;;;;;;;;;;;;4.53;nan;100803.72;5014684;28;19960;-83
2023/03/02 08:32:18;;;;;;;;;;;;;;;4.62;nan;100796.97;4995943;28;19918;-83
2023/03/02 08:34:43;;;;;;;;;;;;;;;4.63;nan;100790.81;4996873;28;20390;-83
2023/03/02 08:37:08;;;;;;;;;;;;;;;4.70;nan;100789.44;5014619;28;19921;-83
2023/03/02 08:39:33;;;;;;;;;;;;;;;4.88;nan;100789.91;4996417;28;19922;-84
2023/03/02 08:41:58;;;;;;;;;;;;;;;5.09;nan;100793.63;5013487;28;19921;-82
2023/03/02 08:44:24;;;;;;;;;;;;;;;5.31;nan;100781.59;5012527;28;19913;-83
2023/03/02 08:46:49;;;;;;;;;;;;;;;6.11;nan;100783.56;5013686;28;19940;-83
2023/03/02 08:49:15;;;;;;;;;;;;;;;7.01;nan;100778.31;4995135;28;20309;-85
2023/03/02 08:51:40;;;;;;;;;;;;;;;7.82;nan;100779.59;5028046;28;19979;-85
2023/03/02 08:54:05;;;;;;;;;;;;;;;8.54;nan;100775.31;4996599;28;19940;-85
2023/03/02 08:56:33;;;;;;;;;;;;;;;9.21;nan;100770.34;5011974;28;19914;-86
2023/03/02 08:58:59;;;;;;;;;;;;;;;9.55;nan;100776.06;4994385;28;20016;-85
2023/03/02 09:01:27;;;;;;;;;;;;;;;10.26;nan;100780.16;5011852;28;20174;-85
2023/03/02 09:03:52;;;;;;;;;;;;;;;10.56;nan;100774.66;5011907;28;19914;-84
2023/03/02 09:06:17;;;;;;;;;;;;;;;10.70;nan;100778.63;5011435;28;20283;-83
2023/03/02 09:08:43;;;;;;;;;;;;;;;11.41;nan;100772.59;4993666;28;19917;-84
2023/03/02 09:11:08;;;;;;;;;;;;;;;11.98;nan;100771.44;4990672;28;19918;-84
2023/03/02 09:13:33;;;;;;;;;;;;;;;12.40;nan;100763.59;4990125;28;20382;-85
2023/03/02 09:15:59;;;;;;;;;;;;;;;12.79;nan;100767.59;4992210;28;20015;-84
2023/03/02 09:18:25;;;;;;;;;;;;;;;13.13;nan;100767.50;4993344;28;19917;-85
2023/03/02 09:20:51;;;;;;;;;;;;;;;13.40;nan;100762.97;4993282;28;20000;-84
2023/03/02 09:23:16;;;;;;;;;;;;;;;13.27;nan;100772.22;5011208;28;19917;-84
2023/03/02 09:25:41;;;;;;;;;;;;;;;13.15;nan;100765.53;4993506;28;19914;-83
2023/03/02 09:28:06;;;;;;;;;;;;;;;12.58;nan;100757.38;4989909;28;19920;-84
2023/03/02 09:30:32;;;;;;;;;;;;;;;12.64;nan;100754.09;4991461;28;19914;-84
2023/03/02 09:32:57;;;;;;;;;;;;;;;13.16;nan;100756.59;4993462;28;19975;-84
2023/03/02 09:35:22;;;;;;;;;;;;;;;13.08;nan;100765.34;4994723;28;19959;-87
2023/03/02 09:37:50;;;;;;;;;;;;;;;13.44;nan;100765.09;4977811;28;19913;-84
2023/03/02 09:40:20;;;;;;;;;;;;;;;13.44;nan;100764.28;4992264;28;19976;-84
2023/03/02 09:43:01;;;;;;;;;;;;;;;13.97;nan;100769.09;5009916;28;20367;-84
2023/03/02 09:45:36;;;;;;;;;;;;;;;13.92;nan;100763.47;4993245;28;20283;-85
2023/03/02 09:48:01;;;;;;;;;;;;;;;13.44;nan;100761.63;4992626;28;19924;-85
2023/03/02 09:50:52;;;;;;;;;;;;;;;12.64;nan;100756.75;5011064;28;19913;-84
2023/03/02 09:53:29;;;;;;;;;;;;;;;11.53;nan;100759.13;4973227;28;19921;-84
2023/03/02 09:55:59;;;;;;;;;;;;;;;10.59;nan;100766.41;4992816;28;19920;-85
2023/03/02 09:58:27;;;;;;;;;;;;;;;10.40;nan;100754.09;4989886;28;20114;-84
2023/03/02 10:00:52;;;;;;;;;;;;;;;10.24;nan;100755.66;4993282;28;19913;-84
2023/03/02 10:03:20;;;;;;;;;;;;;;;9.89;nan;100754.50;4992336;28;19921;-84
2023/03/02 10:05:53;;;;;;;;;;;;;;;9.91;nan;100756.00;4991708;28;20150;-84
2023/03/02 10:08:22;;;;;;;;;;;;;;;9.55;nan;100747.03;5006545;28;19917;-83
2023/03/02 10:11:05;;;;;;;;;;;;;;;9.30;nan;100751.91;4990511;28;19913;-84
2023/03/02 10:13:42;;;;;;;;;;;;;;;9.14;nan;100749.78;4982151;28;19913;-83
2023/03/02 10:16:30;;;;;;;;;;;;;;;9.13;nan;100740.22;5012703;28;19913;-83
2023/03/02 10:19:36;;;;;;;;;;;;;;;9.31;nan;100750.06;4964570;28;19921;-83
2023/03/02 10:22:01;;;;;;;;;;;;;;;10.65;nan;100743.00;4931211;29;19951;-84
2023/03/02 10:24:43;;;;;;;;;;;;;;;11.77;nan;100735.50;4915836;29;19915;-83
2023/03/02 10:27:16;;;;;;;;;;;;;;;12.70;nan;100745.47;4976802;28;19979;-85
2023/03/02 10:29:49;;;;;;;;;;;;;;;13.68;nan;100737.72;5010510;28;20008;-85
2023/03/02 10:32:38;;;;;;;;;;;;;;;14.03;nan;100736.50;4989172;28;20393;-85
2023/03/02 10:35:14;;;;;;;;;;;;;;;14.59;nan;100736.53;4987779;28;19921;-84
2023/03/02 10:37:40;;;;;;;;;;;;;;;15.25;nan;100729.03;5011071;28;20008;-85
2023/03/02 10:40:05;;;;;;;;;;;;;;;15.58;nan;100731.41;4992526;28;20428;-85
2023/03/02 10:42:48;;;;;;;;;;;;;;;15.25;nan;100733.50;5011229;28;20001;-85
2023/03/02 10:45:28;;;;;;;;;;;;;;;15.76;nan;100733.81;5026963;28;19914;-84
2023/03/02 10:48:04;;;;;;;;;;;;;;;15.55;nan;100721.13;5012916;28;19913;-85
2023/03/02 10:50:29;;;;;;;;;;;;;;;15.28;nan;100720.66;5015875;28;19917;-84
2023/03/02 10:52:55;;;;;;;;;;;;;;;15.78;nan;100721.13;5009031;28;19985;-84
2023/03/02 10:55:20;;;;;;;;;;;;;;;16.38;nan;100713.97;4999891;28;19918;-85
2023/03/02 10:57:57;;;;;;;;;;;;;;;16.39;nan;100718.31;5015612;28;19918;-85
2023/03/02 11:00:26;;;;;;;;;;;;;;;16.87;nan;100712.53;5014943;28;20374;-85
2023/03/02 11:02:59;;;;;;;;;;;;;;;17.41;nan;100709.38;4994554;28;19920;-86
2023/03/02 11:05:30;;;;;;;;;;;;;;;17.25;nan;100712.31;4995640;28;19917;-85
2023/03/02 11:07:56;;;;;;;;;;;;;;;18.15;nan;100703.59;5013668;28;19923;-85
2023/03/02 11:10:24;;;;;;;;;;;;;;;17.40;nan;100700.56;4994475;28;19918;-84
2023/03/02 11:12:50;;;;;;;;;;;;;;;17.56;nan;100701.28;4995376;28;19917;-85
2023/03/02 11:15:22;;;;;;;;;;;;;;;17.73;nan;100707.16;5028650;28;19917;-84
2023/03/02 11:17:49;;;;;;;;;;;;;;;18.33;nan;100702.22;4996738;28;19918;-84
2023/03/02 11:20:19;;;;;;;;;;;;;;;18.19;nan;100693.31;5013188;28;19914;-85
2023/03/02 11:22:48;;;;;;;;;;;;;;;18.45;nan;100687.28;4992327;28;20398;-85
2023/03/02 11:25:32;;;;;;;;;;;;;;;18.71;nan;100691.91;4996861;28;19917;-85
2023/03/02 11:28:17;;;;;;;;;;;;;;;19.04;nan;100689.34;4996418;28;19917;-85
2023/03/02 11:30:45;;;;;;;;;;;;;;;19.59;nan;100683.78;4999223;28;20051;-86
2023/03/02 11:33:13;;;;;;;;;;;;;;;20.11;nan;100689.31;5012746;28;19928;-86
2023/03/02 11:35:57;;;;;;;;;;;;;;;19.84;nan;100686.69;4996016;28;19920;-83
2023/03/02 11:38:24;;;;;;;;;;;;;;;18.01;nan;100685.78;4996189;28;19929;-85
2023/03/02 11:40:52;;;;;;;;;;;;;;;18.09;nan;100677.63;5005785;28;19913;-85
2023/03/02 11:43:17;;;;;;;;;;;;;;;18.11;nan;100677.41;4998367;28;19917;-86
2023/03/02 11:45:45;;;;;;;;;;;;;;;17.53;nan;100678.44;4998630;28;19924;-86
2023/03/02 11:48:21;;;;;;;;;;;;;;;16.66;nan;100666.09;4997201;28;19991;-86
2023/03/02 11:50:56;;;;;;;;;;;;;;;15.97;nan;100665.59;4997108;28;20403;-85
2023/03/02 11:53:25;;;;;;;;;;;;;;;15.11;nan;100662.34;5015610;28;19918;-83
2023/03/02 11:55:50;;;;;;;;;;;;;;;14.88;nan;100654.38;4997153;28;20174;-85
2023/03/02 11:58:17;;;;;;;;;;;;;;;14.14;nan;100663.53;5013238;28;19917;-87
2023/03/02 12:00:42;;;;;;;;;;;;;;;14.19;nan;100652.38;5011274;28;19921;-86
2023/03/02 12:03:13;;;;;;;;;;;;;;;14.06;nan;100654.75;5004222;28;19913;-86
2023/03/02 12:05:39;;;;;;;;;;;;;;;13.66;nan;100649.38;4998445;28;19913;-86
2023/03/02 12:08:04;;;;;;;;;;;;;;;13.81;nan;100637.03;5000401;28;20256;-86
2023/03/02 12:10:38;;;;;;;;;;;;;;;13.81;nan;100639.69;5001078;28;19913;-86
2023/03/02 12:13:21;;;;;;;;;;;;;;;13.68;nan;100636.75;5017331;28;20222;-87
2023/03/02 12:15:51;;;;;;;;;;;;;;;13.35;nan;100635.97;4997428;28;19913;-87
2023/03/02 12:18:19;;;;;;;;;;;;;;;13.17;nan;100634.25;5017489;28;19921;-86
2023/03/02 12:20:44;;;;;;;;;;;;;;;13.03;nan;100631.44;5018804;28;19913;-85
2023/03/02 12:23:20;;;;;;;;;;;;;;;12.67;nan;100629.06;5017029;28;20391;-86
2023/03/02 12:25:50;;;;;;;;;;;;;;;12.25;nan;100628.13;5000842;28;19921;-85
2023/03/02 12:28:44;;;;;;;;;;;;;;;12.16;nan;100626.44;5017302;28;19917;-86
2023/03/02 12:31:11;;;;;;;;;;;;;;;12.04;nan;100619.78;4997984;28;19917;-86
2023/03/02 12:33:44;;;;;;;;;;;;;;;12.07;nan;100625.56;5016242;28;19959;-86
2023/03/02 12:36:12;;;;;;;;;;;;;;;12.13;nan;100623.28;5016538;28;19924;-86
2023/03/02 12:38:38;;;;;;;;;;;;;;;11.94;nan;100622.53;5016352;28;19928;-86
2023/03/02 12:41:22;;;;;;;;;;;;;;;11.97;nan;100624.03;5000510;28;19925;-84
2023/03/02 12:43:54;;;;;;;;;;;;;;;11.97;nan;100622.22;5000298;28;19918;-86
2023/03/02 12:46:27;;;;;;;;;;;;;;;11.79;nan;100619.59;4999649;28;19976;-84
2023/03/02 12:48:58;;;;;;;;;;;;;;;11.84;nan;100614.66;4998773;28;19913;-86
2023/03/02 12:51:24;;;;;;;;;;;;;;;12.01;nan;100610.31;5018055;28;19928;-85
2023/03/02 12:54:00;;;;;;;;;;;;;;;12.05;nan;100609.00;5018104;28;19913;-85
2023/03/02 12:56:26;;;;;;;;;;;;;;;11.96;nan;100598.50;5017906;28;20394;-85
2023/03/02 12:58:52;;;;;;;;;;;;;;;11.97;nan;100600.19;5001831;28;19928;-85
2023/03/02 13:01:22;;;;;;;;;;;;;;;11.92;nan;100599.81;4999445;28;20001;-84
2023/03/02 13:03:47;;;;;;;;;;;;;;;11.83;nan;100591.81;4997266;28;19917;-83
2023/03/02 13:06:14;;;;;;;;;;;;;;;11.90;nan;100594.69;5011216;28;19917;-83